Time;durP1;ratioP1;P1;durP2;ratioP2;P2;SDS_P1;SDS_P2;PMS_P1;PMS_P2;Temp;Humidity;BMP_temperature;BMP_pressure;BME280_temperature;BME280_humidity;BME280_pressure;Samples;Min_cycle;Max_cycle;Signal;HPM_P1;HPM_P2
2022/09/18 00:02:04;;;;;;;;;;;;;;;;;;5023639;28;20044;-65
2022/09/18 00:04:30;;;;;;;9.13;2.65;;;;;;;;;;5031898;28;19939;-65
2022/09/18 00:06:56;;;;;;;;;;;;;;;;;;5029623;28;20530;-65
2022/09/18 00:09:22;;;;;;;9.50;2.50;;;;;;;;;;5031323;28;19924;-65
2022/09/18 00:11:50;;;;;;;10.68;2.38;;;;;;;;;;5032464;28;20457;-65
2022/09/18 00:14:20;;;;;;;11.63;2.28;;;;;;;;;;5036001;28;20025;-65
2022/09/18 00:16:46;;;;;;;7.63;2.05;;;;;;;;;;5035783;28;20083;-65
2022/09/18 00:19:12;;;;;;;;;;;;;;;;;;5016684;28;20035;-65
2022/09/18 00:21:46;;;;;;;7.75;2.22;;;;;;;;;;5033941;28;19917;-65
2022/09/18 00:24:13;;;;;;;11.13;2.60;;;;;;;;;;5030198;28;20232;-65
2022/09/18 00:26:39;;;;;;;8.40;2.25;;;;;;;;;;5034132;28;20147;-65
2022/09/18 00:29:05;;;;;;;;;;;;;;;;;;5032085;28;20036;-65
2022/09/18 00:31:33;;;;;;;7.75;2.15;;;;;;;;;;5034263;28;19912;-65
2022/09/18 00:34:01;;;;;;;8.48;2.00;;;;;;;;;;5033092;28;20047;-65
2022/09/18 00:36:28;;;;;;;11.32;2.17;;;;;;;;;;5034325;28;20060;-65
2022/09/18 00:38:55;;;;;;;9.93;1.90;;;;;;;;;;5037753;28;20401;-66
2022/09/18 00:41:25;;;;;;;7.82;1.90;;;;;;;;;;5026723;28;20029;-66
2022/09/18 00:43:52;;;;;;;8.25;1.95;;;;;;;;;;5037697;28;20038;-65
2022/09/18 00:46:37;;;;;;;7.05;2.20;;;;;;;;;;5030395;28;20027;-65
2022/09/18 00:49:06;;;;;;;6.57;1.75;;;;;;;;;;5028100;28;20029;-65
2022/09/18 00:51:33;;;;;;;8.02;2.00;;;;;;;;;;5036491;28;20662;-65
2022/09/18 00:54:05;;;;;;;8.55;2.20;;;;;;;;;;5039362;28;20027;-65
2022/09/18 00:56:31;;;;;;;8.30;2.00;;;;;;;;;;5035990;28;20059;-65
2022/09/18 00:58:58;;;;;;;10.43;2.08;;;;;;;;;;5038062;28;20430;-65
2022/09/18 01:01:24;;;;;;;10.65;2.50;;;;;;;;;;5011281;28;20375;-65
2022/09/18 01:03:50;;;;;;;;;;;;;;;;;;5010178;28;20408;-65
2022/09/18 01:06:22;;;;;;;10.75;2.90;;;;;;;;;;5012166;28;20341;-65
2022/09/18 01:09:00;;;;;;;9.77;2.50;;;;;;;;;;5019360;28;20033;-65
2022/09/18 01:11:27;;;;;;;8.80;2.25;;;;;;;;;;5032051;28;20419;-66
2022/09/18 01:13:52;;;;;;;;;;;;;;;;;;5017340;28;20055;-65
2022/09/18 01:16:32;;;;;;;10.52;2.33;;;;;;;;;;5034682;28;22173;-65
2022/09/18 01:19:05;;;;;;;8.50;2.20;;;;;;;;;;5013107;28;20083;-65
2022/09/18 01:21:37;;;;;;;9.55;2.00;;;;;;;;;;5032026;28;20029;-65
2022/09/18 01:24:22;;;;;;;12.20;2.22;;;;;;;;;;5030964;28;20605;-65
2022/09/18 01:27:01;;;;;;;7.25;1.75;;;;;;;;;;5034623;28;20037;-65
2022/09/18 01:29:44;;;;;;;10.25;2.20;;;;;;;;;;5035182;28;20089;-65
2022/09/18 01:32:29;;;;;;;10.45;2.00;;;;;;;;;;5011455;28;20338;-65
2022/09/18 01:35:07;;;;;;;9.90;2.10;;;;;;;;;;5014013;28;20039;-65
2022/09/18 01:37:49;;;;;;;8.25;1.90;;;;;;;;;;5035317;28;20043;-65
2022/09/18 01:40:19;;;;;;;9.43;1.90;;;;;;;;;;5036108;28;20063;-65
2022/09/18 01:42:47;;;;;;;7.10;1.70;;;;;;;;;;5015225;28;20286;-65
2022/09/18 01:45:15;;;;;;;6.82;1.50;;;;;;;;;;5030014;28;20309;-65
2022/09/18 01:47:47;;;;;;;7.03;1.75;;;;;;;;;;5017085;28;20057;-65
2022/09/18 01:50:14;;;;;;;10.45;2.05;;;;;;;;;;5030499;28;20025;-64
2022/09/18 01:52:50;;;;;;;10.10;1.80;;;;;;;;;;5037388;28;20032;-65
2022/09/18 01:55:18;;;;;;;7.00;1.70;;;;;;;;;;5011471;28;20481;-64
2022/09/18 01:57:54;;;;;;;8.35;2.00;;;;;;;;;;5018706;28;20529;-64
2022/09/18 02:00:21;;;;;;;8.18;1.83;;;;;;;;;;5025834;28;20097;-64
2022/09/18 02:02:56;;;;;;;6.55;1.63;;;;;;;;;;5030671;28;20052;-64
2022/09/18 02:05:37;;;;;;;6.53;1.60;;;;;;;;;;5009944;28;20053;-64
2022/09/18 02:08:09;;;;;;;5.25;1.38;;;;;;;;;;5013691;28;20029;-65
2022/09/18 02:10:38;;;;;;;8.80;1.65;;;;;;;;;;5032729;28;20903;-64
2022/09/18 02:13:05;;;;;;;7.55;1.70;;;;;;;;;;5029627;28;20640;-64
2022/09/18 02:15:35;;;;;;;6.03;1.63;;;;;;;;;;5033301;28;20494;-64
2022/09/18 02:18:04;;;;;;;5.72;1.45;;;;;;;;;;5029400;28;20029;-65
2022/09/18 02:20:31;;;;;;;10.68;2.00;;;;;;;;;;5029940;28;20044;-64
2022/09/18 02:22:58;;;;;;;9.32;1.70;;;;;;;;;;5037119;28;20092;-64
2022/09/18 02:25:42;;;;;;;7.25;1.70;;;;;;;;;;5037917;28;20029;-64
2022/09/18 02:28:09;;;;;;;10.52;1.55;;;;;;;;;;5028846;28;20670;-65
2022/09/18 02:30:38;;;;;;;7.47;1.50;;;;;;;;;;5038610;28;20439;-64
2022/09/18 02:33:07;;;;;;;8.40;1.58;;;;;;;;;;5025572;28;20987;-64
2022/09/18 02:35:39;;;;;;;6.72;1.50;;;;;;;;;;5031117;28;20083;-64
2022/09/18 02:38:12;;;;;;;8.02;1.80;;;;;;;;;;5027374;28;20111;-64
2022/09/18 02:40:53;;;;;;;7.38;1.52;;;;;;;;;;5031203;28;20563;-64
2022/09/18 02:43:22;;;;;;;7.43;1.40;;;;;;;;;;5028378;28;20061;-64
2022/09/18 02:45:55;;;;;;;7.57;1.50;;;;;;;;;;5034861;28;20379;-64
2022/09/18 02:48:27;;;;;;;7.85;1.70;;;;;;;;;;5009363;28;20029;-64
2022/09/18 02:51:12;;;;;;;6.55;1.55;;;;;;;;;;5014936;28;20095;-64
2022/09/18 02:53:56;;;;;;;6.80;1.45;;;;;;;;;;5027606;28;20028;-64
2022/09/18 02:56:22;;;;;;;9.82;1.80;;;;;;;;;;5026942;28;20029;-64
2022/09/18 02:58:53;;;;;;;7.07;1.42;;;;;;;;;;5028485;28;20040;-64
2022/09/18 03:01:21;;;;;;;8.20;1.40;;;;;;;;;;5024852;28;20351;-64
2022/09/18 03:03:47;;;;;;;6.05;1.35;;;;;;;;;;5032193;28;20037;-64
2022/09/18 03:06:13;;;;;;;;;;;;;;;;;;5009961;28;20096;-64
2022/09/18 03:08:39;;;;;;;7.05;1.50;;;;;;;;;;5014913;28;20018;-64
2022/09/18 03:11:05;;;;;;;7.78;1.33;;;;;;;;;;5009402;28;20471;-65
2022/09/18 03:13:31;;;;;;;;;;;;;;;;;;5029354;28;20628;-65
2022/09/18 03:15:57;;;;;;;7.70;1.50;;;;;;;;;;5035751;28;19919;-64
2022/09/18 03:18:24;;;;;;;7.57;1.30;;;;;;;;;;5025711;28;20032;-64
2022/09/18 03:20:50;;;;;;;6.45;1.45;;;;;;;;;;5030839;28;20460;-64
2022/09/18 03:23:16;;;;;;;;;;;;;;;;;;5031341;28;20105;-64
2022/09/18 03:25:42;;;;;;;6.30;1.48;;;;;;;;;;5033292;28;19920;-64
2022/09/18 03:28:08;;;;;;;;;;;;;;;;;;5030916;28;20471;-64
2022/09/18 03:30:34;;;;;;;9.85;1.92;;;;;;;;;;5017954;28;19919;-64
2022/09/18 03:33:01;;;;;;;7.20;1.42;;;;;;;;;;5026441;28;20155;-64
2022/09/18 03:35:27;;;;;;;8.85;1.67;;;;;;;;;;5013830;28;20041;-64
2022/09/18 03:37:54;;;;;;;;;;;;;;;;;;5027837;28;20033;-64
2022/09/18 03:40:20;;;;;;;7.10;1.40;;;;;;;;;;5027835;28;20018;-64
2022/09/18 03:42:46;;;;;;;;;;;;;;;;;;5035583;28;20025;-64
2022/09/18 03:45:12;;;;;;;7.07;1.48;;;;;;;;;;5032160;28;19931;-64
2022/09/18 03:47:39;;;;;;;9.30;1.63;;;;;;;;;;5039202;28;20032;-65
2022/09/18 03:50:05;;;;;;;;;;;;;;;;;;5014239;28;20448;-64
2022/09/18 03:52:32;;;;;;;7.50;1.50;;;;;;;;;;5032229;28;19917;-64
2022/09/18 03:54:58;;;;;;;7.90;1.40;;;;;;;;;;5036833;28;20116;-64
2022/09/18 03:57:24;;;;;;;6.70;1.38;;;;;;;;;;5031694;28;20037;-64
2022/09/18 03:59:50;;;;;;;;;;;;;;;;;;5035495;28;20182;-64
2022/09/18 04:02:16;;;;;;;8.70;1.55;;;;;;;;;;5015614;28;20618;-64
2022/09/18 04:04:42;;;;;;;;;;;;;;;;;;5017405;28;20028;-65
2022/09/18 04:07:08;;;;;;;11.85;1.50;;;;;;;;;;5030730;28;19990;-64
2022/09/18 04:09:34;;;;;;;;;;;;;;;;;;5037532;28;20071;-64
2022/09/18 04:12:00;;;;;;;9.60;1.42;;;;;;;;;;5030576;28;20350;-64
2022/09/18 04:14:26;;;;;;;;;;;;;;;;;;5020143;28;20118;-64
2022/09/18 04:16:53;;;;;;;5.63;1.20;;;;;;;;;;5034564;28;20036;-64
2022/09/18 04:19:19;;;;;;;8.38;1.40;;;;;;;;;;5033805;28;21565;-65
2022/09/18 04:21:45;;;;;;;;;;;;;;;;;;5037426;28;20037;-64
2022/09/18 04:24:11;;;;;;;6.88;1.42;;;;;;;;;;5033423;28;19912;-63
2022/09/18 04:26:37;;;;;;;;;;;;;;;;;;5039488;28;20422;-64
2022/09/18 04:29:04;;;;;;;8.15;1.75;;;;;;;;;;5033664;28;20417;-64
2022/09/18 04:31:30;;;;;;;10.25;1.40;;;;;;;;;;5013689;28;20553;-67
2022/09/18 04:33:56;;;;;;;10.52;1.50;;;;;;;;;;5032966;28;20024;-64
2022/09/18 04:36:23;;;;;;;;;;;;;;;;;;5030756;28;20029;-64
2022/09/18 04:38:49;;;;;;;11.70;1.90;;;;;;;;;;5032216;28;19986;-65
2022/09/18 04:41:15;;;;;;;6.50;1.38;;;;;;;;;;5030441;28;20047;-64
2022/09/18 04:43:42;;;;;;;;;;;;;;;;;;5013735;28;20033;-64
2022/09/18 04:46:08;;;;;;;9.25;1.90;;;;;;;;;;5031533;28;19912;-65
2022/09/18 04:48:34;;;;;;;8.80;1.75;;;;;;;;;;5030237;28;20032;-65
2022/09/18 04:51:00;;;;;;;;;;;;;;;;;;5010083;28;20036;-65
2022/09/18 04:53:27;;;;;;;9.07;1.58;;;;;;;;;;5032731;28;19931;-65
2022/09/18 04:55:53;;;;;;;9.18;1.55;;;;;;;;;;5018026;28;20029;-65
2022/09/18 04:58:19;;;;;;;11.35;1.42;;;;;;;;;;5029608;28;21546;-65
2022/09/18 05:00:52;;;;;;;6.63;1.45;;;;;;;;;;5036020;28;20120;-65
2022/09/18 05:03:19;;;;;;;10.35;1.65;;;;;;;;;;5033093;28;20498;-65
2022/09/18 05:05:47;;;;;;;11.35;1.70;;;;;;;;;;5031444;28;20036;-65
2022/09/18 05:08:13;;;;;;;9.15;1.58;;;;;;;;;;5029145;28;20435;-65
2022/09/18 05:10:39;;;;;;;;;;;;;;;;;;5032198;28;20135;-65
2022/09/18 05:13:05;;;;;;;9.55;1.42;;;;;;;;;;5029598;28;19916;-65
2022/09/18 05:15:32;;;;;;;11.18;1.70;;;;;;;;;;5022306;28;20043;-65
2022/09/18 05:17:59;;;;;;;7.75;1.55;;;;;;;;;;5034264;28;20033;-64
2022/09/18 05:20:25;;;;;;;7.85;1.50;;;;;;;;;;5015846;28;20510;-64
2022/09/18 05:22:51;;;;;;;;;;;;;;;;;;5017063;28;20028;-65
2022/09/18 05:25:19;;;;;;;9.65;2.10;;;;;;;;;;5029683;28;19951;-65
2022/09/18 05:27:52;;;;;;;8.02;2.20;;;;;;;;;;5034982;28;20299;-65
2022/09/18 05:30:19;;;;;;;6.32;1.48;;;;;;;;;;5026970;28;20551;-64
2022/09/18 05:32:53;;;;;;;8.93;1.42;;;;;;;;;;5012471;28;20800;-65
2022/09/18 05:35:19;;;;;;;8.48;1.55;;;;;;;;;;5028151;28;20029;-65
2022/09/18 05:37:45;;;;;;;;;;;;;;;;;;5038265;28;20103;-65
2022/09/18 05:40:12;;;;;;;11.38;1.63;;;;;;;;;;5029246;28;20382;-65
2022/09/18 05:42:44;;;;;;;8.40;1.50;;;;;;;;;;5036805;28;20070;-65
2022/09/18 05:45:10;;;;;;;7.38;1.30;;;;;;;;;;5030286;28;20052;-65
2022/09/18 05:47:36;;;;;;;;;;;;;;;;;;5034606;28;20032;-65
2022/09/18 05:50:02;;;;;;;8.73;1.70;;;;;;;;;;5029468;28;19965;-65
2022/09/18 05:52:28;;;;;;;;;;;;;;;;;;5035956;28;20064;-64
2022/09/18 05:54:54;;;;;;;7.32;1.45;;;;;;;;;;5017362;28;20268;-64
2022/09/18 05:57:20;;;;;;;;;;;;;;;;;;5029825;28;20064;-64
2022/09/18 05:59:46;;;;;;;8.32;1.70;;;;;;;;;;5031820;28;20029;-64
2022/09/18 06:02:12;;;;;;;;;;;;;;;;;;5029542;28;20029;-64
2022/09/18 06:04:38;;;;;;;8.23;1.95;;;;;;;;;;5035425;28;19920;-64
2022/09/18 06:07:05;;;;;;;10.00;1.85;;;;;;;;;;5007187;28;20025;-64
2022/09/18 06:09:31;;;;;;;15.73;2.60;;;;;;;;;;5025821;28;20494;-64
2022/09/18 06:11:57;;;;;;;15.23;2.50;;;;;;;;;;5035962;28;20685;-64
2022/09/18 06:14:23;;;;;;;;;;;;;;;;;;5028546;28;20036;-64
2022/09/18 06:16:50;;;;;;;10.77;2.20;;;;;;;;;;5032033;28;20345;-64
2022/09/18 06:19:16;;;;;;;8.85;2.20;;;;;;;;;;5031335;28;20230;-64
2022/09/18 06:21:42;;;;;;;8.38;1.98;;;;;;;;;;5014588;28;20037;-64
2022/09/18 06:24:08;;;;;;;;;;;;;;;;;;5012930;28;20033;-64
2022/09/18 06:26:35;;;;;;;10.07;2.50;;;;;;;;;;5035310;28;20166;-64
2022/09/18 06:29:01;;;;;;;10.95;2.10;;;;;;;;;;5026618;28;20017;-64
2022/09/18 06:31:27;;;;;;;12.30;1.95;;;;;;;;;;5038649;28;20169;-64
2022/09/18 06:33:53;;;;;;;;;;;;;;;;;;5033473;28;20037;-68
2022/09/18 06:36:19;;;;;;;9.48;2.20;;;;;;;;;;5012663;28;22630;-64
2022/09/18 06:38:45;;;;;;;;;;;;;;;;;;5034282;28;20402;-64
2022/09/18 06:41:11;;;;;;;9.30;1.90;;;;;;;;;;5030082;28;20123;-65
2022/09/18 06:43:37;;;;;;;;;;;;;;;;;;5035646;28;20029;-65
2022/09/18 06:46:03;;;;;;;8.98;2.00;;;;;;;;;;5034035;28;20465;-64
2022/09/18 06:48:30;;;;;;;11.23;3.35;;;;;;;;;;5013239;28;20566;-64
2022/09/18 06:50:57;;;;;;;16.23;4.95;;;;;;;;;;5015663;28;20140;-64
2022/09/18 06:53:24;;;;;;;15.00;5.15;;;;;;;;;;5032433;28;20406;-63
2022/09/18 06:55:50;;;;;;;12.32;4.40;;;;;;;;;;5013230;28;20029;-64
2022/09/18 06:58:16;;;;;;;;;;;;;;;;;;5032375;28;20037;-64
2022/09/18 07:00:43;;;;;;;11.15;3.42;;;;;;;;;;5031179;28;19956;-64
2022/09/18 07:03:10;;;;;;;9.05;3.00;;;;;;;;;;5030247;28;20041;-63
2022/09/18 07:05:38;;;;;;;12.95;3.38;;;;;;;;;;5035475;28;20025;-65
2022/09/18 07:08:04;;;;;;;10.15;2.60;;;;;;;;;;5035077;28;21041;-63
2022/09/18 07:10:30;;;;;;;;;;;;;;;;;;5030994;28;20140;-65
2022/09/18 07:12:57;;;;;;;7.50;1.60;;;;;;;;;;5036283;28;19912;-64
2022/09/18 07:15:23;;;;;;;8.15;1.70;;;;;;;;;;5014127;28;20342;-64
2022/09/18 07:17:51;;;;;;;7.45;1.63;;;;;;;;;;5038878;28;20561;-65
2022/09/18 07:20:18;;;;;;;9.07;2.03;;;;;;;;;;5037604;28;20039;-66
2022/09/18 07:22:51;;;;;;;10.30;2.00;;;;;;;;;;5021394;28;20439;-63
2022/09/18 07:25:17;;;;;;;8.48;1.77;;;;;;;;;;5036232;28;20028;-66
2022/09/18 07:27:43;;;;;;;13.88;1.83;;;;;;;;;;5044550;28;20145;-65
2022/09/18 07:30:09;;;;;;;7.05;1.35;;;;;;;;;;5035014;28;20028;-65
2022/09/18 07:32:36;;;;;;;8.75;1.58;;;;;;;;;;5020402;28;20064;-65
2022/09/18 07:35:02;;;;;;;7.97;1.70;;;;;;;;;;5014855;28;20028;-65
2022/09/18 07:37:28;;;;;;;8.73;2.05;;;;;;;;;;5033150;28;20071;-65
2022/09/18 07:39:54;;;;;;;9.73;1.65;;;;;;;;;;5034709;28;20033;-65
2022/09/18 07:42:20;;;;;;;8.35;1.65;;;;;;;;;;5033284;28;20979;-65
2022/09/18 07:44:46;;;;;;;11.95;2.20;;;;;;;;;;5034395;28;20043;-65
2022/09/18 07:47:13;;;;;;;11.65;2.10;;;;;;;;;;5014013;28;20033;-65
2022/09/18 07:49:39;;;;;;;11.73;2.10;;;;;;;;;;5039010;28;20540;-65
2022/09/18 07:52:06;;;;;;;9.77;1.92;;;;;;;;;;5030235;28;20086;-65
2022/09/18 07:54:32;;;;;;;11.15;1.92;;;;;;;;;;5037267;28;20025;-66
2022/09/18 07:56:58;;;;;;;6.78;1.45;;;;;;;;;;5032884;28;20036;-65
2022/09/18 07:59:24;;;;;;;8.98;1.67;;;;;;;;;;5011680;28;20056;-65
2022/09/18 08:01:51;;;;;;;8.63;2.00;;;;;;;;;;5034820;28;20060;-65
2022/09/18 08:04:17;;;;;;;9.80;2.10;;;;;;;;;;5037411;28;20032;-65
2022/09/18 08:06:45;;;;;;;9.38;2.03;;;;;;;;;;5017052;28;20844;-65
2022/09/18 08:09:11;;;;;;;9.93;1.75;;;;;;;;;;5014547;28;20118;-65
2022/09/18 08:11:37;;;;;;;10.18;2.35;;;;;;;;;;5026951;28;20040;-65
2022/09/18 08:14:03;;;;;;;11.35;2.00;;;;;;;;;;5027034;28;20144;-66
2022/09/18 08:16:29;;;;;;;10.77;2.17;;;;;;;;;;5009235;28;20098;-64
2022/09/18 08:18:56;;;;;;;11.18;1.80;;;;;;;;;;5032504;28;20028;-64
2022/09/18 08:21:22;;;;;;;9.13;2.17;;;;;;;;;;5029530;28;20396;-65
2022/09/18 08:23:48;;;;;;;9.00;2.10;;;;;;;;;;5032553;28;20067;-65
2022/09/18 08:26:14;;;;;;;11.90;2.13;;;;;;;;;;5009869;28;20037;-64
2022/09/18 08:28:40;;;;;;;11.18;2.22;;;;;;;;;;5034014;28;20029;-65
2022/09/18 08:31:07;;;;;;;10.05;2.10;;;;;;;;;;5010601;28;20574;-65
2022/09/18 08:33:33;;;;;;;14.85;2.55;;;;;;;;;;5025897;28;20029;-64
2022/09/18 08:35:59;;;;;;;10.52;2.58;;;;;;;;;;5011308;28;20497;-64
2022/09/18 08:38:25;;;;;;;10.57;2.45;;;;;;;;;;5031857;28;20128;-64
2022/09/18 08:41:01;;;;;;;11.80;1.95;;;;;;;;;;5014516;28;20766;-64
2022/09/18 08:43:28;;;;;;;9.25;1.88;;;;;;;;;;5031309;28;20393;-64
2022/09/18 08:46:01;;;;;;;12.65;2.17;;;;;;;;;;5015407;28;20370;-64
2022/09/18 08:48:33;;;;;;;9.70;2.33;;;;;;;;;;5029657;28;20033;-64
2022/09/18 08:51:04;;;;;;;11.43;2.45;;;;;;;;;;5029743;28;20096;-65
2022/09/18 08:53:39;;;;;;;11.02;2.30;;;;;;;;;;5012471;28;20032;-64
2022/09/18 08:56:11;;;;;;;10.07;2.05;;;;;;;;;;5027845;28;21595;-65
2022/09/18 08:58:44;;;;;;;14.55;2.38;;;;;;;;;;5027539;28;20056;-64
2022/09/18 09:01:13;;;;;;;9.23;2.08;;;;;;;;;;5024738;28;20037;-64
2022/09/18 09:04:00;;;;;;;8.63;1.73;;;;;;;;;;5029727;28;20067;-64
2022/09/18 09:06:45;;;;;;;9.35;2.63;;;;;;;;;;5006800;28;20033;-65
2022/09/18 09:09:11;;;;;;;12.32;2.83;;;;;;;;;;5024941;28;20326;-64
2022/09/18 09:11:40;;;;;;;8.07;1.67;;;;;;;;;;5028387;28;20387;-65
2022/09/18 09:14:25;;;;;;;10.65;2.17;;;;;;;;;;5022844;28;20361;-65
2022/09/18 09:16:55;;;;;;;12.40;2.53;;;;;;;;;;5023538;28;20056;-64
2022/09/18 09:19:38;;;;;;;11.23;2.60;;;;;;;;;;5020988;28;20363;-65
2022/09/18 09:22:17;;;;;;;10.45;1.98;;;;;;;;;;5024905;28;20041;-70
2022/09/18 09:24:48;;;;;;;9.95;2.00;;;;;;;;;;5028471;28;20067;-70
2022/09/18 09:27:22;;;;;;;10.13;2.35;;;;;;;;;;5026517;28;20064;-70
2022/09/18 09:29:50;;;;;;;8.38;1.80;;;;;;;;;;5028073;28;20033;-70
2022/09/18 09:32:16;;;;;;;9.60;2.28;;;;;;;;;;5028429;28;20474;-69
2022/09/18 09:35:08;;;;;;;12.10;2.15;;;;;;;;;;5029542;28;20040;-70
2022/09/18 09:37:38;;;;;;;9.15;2.25;;;;;;;;;;5015625;28;20494;-70
2022/09/18 09:40:07;;;;;;;11.18;2.20;;;;;;;;;;5024392;28;20079;-70
2022/09/18 09:42:36;;;;;;;11.68;2.03;;;;;;;;;;5010311;28;20024;-70
2022/09/18 09:45:13;;;;;;;11.43;2.47;;;;;;;;;;5026225;28;20012;-70
2022/09/18 09:47:50;;;;;;;9.88;2.17;;;;;;;;;;5030302;28;20033;-70
2022/09/18 09:50:29;;;;;;;10.95;2.00;;;;;;;;;;5026517;28;20040;-70
2022/09/18 09:52:58;;;;;;;8.93;2.22;;;;;;;;;;5034075;28;20546;-70
2022/09/18 09:55:27;;;;;;;12.85;2.17;;;;;;;;;;5009157;28;20036;-70
2022/09/18 09:58:11;;;;;;;10.15;2.15;;;;;;;;;;5030335;28;20570;-70
2022/09/18 10:00:58;;;;;;;8.13;1.88;;;;;;;;;;5029220;28;20135;-70
2022/09/18 10:03:41;;;;;;;9.05;2.00;;;;;;;;;;5030682;28;20470;-69
2022/09/18 10:06:15;;;;;;;12.38;2.53;;;;;;;;;;5023477;28;20459;-70
2022/09/18 10:09:02;;;;;;;11.02;1.90;;;;;;;;;;5029609;28;20039;-70
2022/09/18 10:11:28;;;;;;;10.40;2.10;;;;;;;;;;5025227;28;20029;-70
2022/09/18 10:14:01;;;;;;;8.00;1.80;;;;;;;;;;5031084;28;20453;-70
2022/09/18 10:16:40;;;;;;;7.32;1.52;;;;;;;;;;5008333;28;20036;-70
2022/09/18 10:19:06;;;;;;;7.80;1.83;;;;;;;;;;5006438;28;20537;-70
2022/09/18 10:21:34;;;;;;;11.27;2.17;;;;;;;;;;5011072;28;20075;-70
2022/09/18 10:24:14;;;;;;;8.88;2.22;;;;;;;;;;5008713;28;20467;-71
2022/09/18 10:26:44;;;;;;;9.50;1.98;;;;;;;;;;5009662;28;20029;-70
2022/09/18 10:29:10;;;;;;;10.65;2.08;;;;;;;;;;5029942;28;20029;-70
2022/09/18 10:31:50;;;;;;;11.48;2.15;;;;;;;;;;5028694;28;20119;-70
2022/09/18 10:34:31;;;;;;;9.95;2.00;;;;;;;;;;5005238;28;20521;-70
2022/09/18 10:36:57;;;;;;;8.57;1.90;;;;;;;;;;5029697;28;20444;-70
2022/09/18 10:39:28;;;;;;;10.57;1.90;;;;;;;;;;5029641;28;20039;-70
2022/09/18 10:42:01;;;;;;;9.60;2.22;;;;;;;;;;5028616;28;20486;-71
2022/09/18 10:44:34;;;;;;;9.88;2.17;;;;;;;;;;5031082;28;20021;-70
2022/09/18 10:47:04;;;;;;;9.07;1.90;;;;;;;;;;5031427;28;20029;-71
2022/09/18 10:49:35;;;;;;;8.52;2.15;;;;;;;;;;5027907;28;20028;-71
2022/09/18 10:52:17;;;;;;;10.40;2.40;;;;;;;;;;5031374;28;20470;-71
2022/09/18 10:54:57;;;;;;;10.07;2.38;;;;;;;;;;5033834;28;20105;-70
2022/09/18 10:57:27;;;;;;;10.00;2.58;;;;;;;;;;5030332;28;20096;-70
2022/09/18 10:59:53;;;;;;;10.38;2.40;;;;;;;;;;5017209;28;20475;-71
2022/09/18 11:02:21;;;;;;;9.45;1.92;;;;;;;;;;5032435;28;24013;-71
2022/09/18 11:04:47;;;;;;;8.98;2.17;;;;;;;;;;5035143;28;20035;-71
2022/09/18 11:07:14;;;;;;;10.18;2.72;;;;;;;;;;5011493;28;20050;-71
2022/09/18 11:09:40;;;;;;;10.00;2.35;;;;;;;;;;5027678;28;20135;-71
2022/09/18 11:12:15;;;;;;;9.68;2.30;;;;;;;;;;5033082;28;20926;-71
2022/09/18 11:14:45;;;;;;;9.93;2.28;;;;;;;;;;5034340;28;20040;-70
2022/09/18 11:17:18;;;;;;;7.15;1.95;;;;;;;;;;5029387;28;20028;-71
2022/09/18 11:19:49;;;;;;;10.88;2.30;;;;;;;;;;5013901;28;20044;-70
2022/09/18 11:22:36;;;;;;;11.07;2.33;;;;;;;;;;5028731;28;20032;-71
2022/09/18 11:25:08;;;;;;;10.30;2.55;;;;;;;;;;5004282;28;20039;-71
2022/09/18 11:27:45;;;;;;;11.35;2.42;;;;;;;;;;5009816;28;20033;-71
2022/09/18 11:30:31;;;;;;;11.10;2.60;;;;;;;;;;5004513;28;20197;-71
2022/09/18 11:32:57;;;;;;;;;;;;;;;;;;5027444;28;20045;-68
2022/09/18 11:35:24;;;;;;;9.88;2.70;;;;;;;;;;5011757;28;20490;-71
2022/09/18 11:38:20;;;;;;;9.75;2.65;;;;;;;;;;5027728;28;20558;-70
2022/09/18 11:40:50;;;;;;;9.80;2.70;;;;;;;;;;4930356;28;20142;-71
2022/09/18 11:43:21;;;;;;;8.70;2.33;;;;;;;;;;4923560;28;20043;-71
2022/09/18 11:46:05;;;;;;;11.23;2.75;;;;;;;;;;4933207;28;20043;-71
2022/09/18 11:49:07;;;;;;;7.47;2.07;;;;;;;;;;4929376;28;20034;-70
2022/09/18 11:51:43;;;;;;;8.55;2.10;;;;;;;;;;4882425;29;20040;-70
2022/09/18 11:54:14;;;;;;;12.55;2.78;;;;;;;;;;4882516;29;20382;-71
2022/09/18 11:56:44;;;;;;;8.43;2.03;;;;;;;;;;4884778;29;20042;-71
2022/09/18 11:59:14;;;;;;;11.40;2.22;;;;;;;;;;4883088;29;20072;-71
2022/09/18 12:01:40;;;;;;;11.05;1.95;;;;;;;;;;4886332;29;20146;-71
2022/09/18 12:04:14;;;;;;;6.57;1.80;;;;;;;;;;4878151;29;20389;-71
2022/09/18 12:06:56;;;;;;;8.88;2.20;;;;;;;;;;4884431;29;20062;-70
2022/09/18 12:09:22;;;;;;;9.20;1.98;;;;;;;;;;4879581;29;20047;-69
2022/09/18 12:11:48;;;;;;;9.77;2.58;;;;;;;;;;4884698;29;20036;-68
2022/09/18 12:14:18;;;;;;;9.73;2.10;;;;;;;;;;4879156;29;20833;-69
2022/09/18 12:16:57;;;;;;;8.25;2.38;;;;;;;;;;4901866;28;20291;-69
2022/09/18 12:19:31;;;;;;;12.60;2.28;;;;;;;;;;4940011;28;20246;-69
2022/09/18 12:22:05;;;;;;;8.38;2.00;;;;;;;;;;4942342;28;20521;-68
2022/09/18 12:24:31;;;;;;;9.77;2.05;;;;;;;;;;4944261;28;20030;-69
2022/09/18 12:26:57;;;;;;;10.20;2.25;;;;;;;;;;5028958;28;20402;-71
2022/09/18 12:29:27;;;;;;;7.93;2.22;;;;;;;;;;5025715;28;20025;-69
2022/09/18 12:32:01;;;;;;;10.40;2.28;;;;;;;;;;5009465;28;20033;-70
2022/09/18 12:34:30;;;;;;;9.00;2.20;;;;;;;;;;5029339;28;20038;-65
2022/09/18 12:37:08;;;;;;;10.98;2.50;;;;;;;;;;5014006;28;20041;-68
2022/09/18 12:39:44;;;;;;;7.90;2.25;;;;;;;;;;5013444;28;20035;-67
2022/09/18 12:42:19;;;;;;;9.23;2.38;;;;;;;;;;5030568;28;20136;-69
2022/09/18 12:44:49;;;;;;;9.27;2.30;;;;;;;;;;5015711;28;20078;-68
2022/09/18 12:47:15;;;;;;;9.23;2.63;;;;;;;;;;5026812;28;20481;-67
2022/09/18 12:49:59;;;;;;;8.55;2.47;;;;;;;;;;5027121;28;20028;-70
2022/09/18 12:52:35;;;;;;;10.32;2.30;;;;;;;;;;5030494;28;20032;-69
2022/09/18 12:55:13;;;;;;;10.98;3.50;;;;;;;;;;5024387;28;20729;-68
2022/09/18 12:58:11;;;;;;;11.85;3.20;;;;;;;;;;5025836;28;20052;-68
2022/09/18 13:00:38;;;;;;;9.40;3.00;;;;;;;;;;4973316;28;20046;-64
2022/09/18 13:03:18;;;;;;;9.45;2.88;;;;;;;;;;4986921;28;20378;-65
2022/09/18 13:05:47;;;;;;;12.43;3.00;;;;;;;;;;4988987;28;20501;-65
2022/09/18 13:08:22;;;;;;;12.32;2.88;;;;;;;;;;4975534;28;20038;-67
2022/09/18 13:10:49;;;;;;;10.43;2.63;;;;;;;;;;4984609;28;20520;-65
2022/09/18 13:13:16;;;;;;;9.60;2.55;;;;;;;;;;4962719;28;20030;-65
2022/09/18 13:15:48;;;;;;;10.02;2.50;;;;;;;;;;4984861;28;20254;-65
2022/09/18 13:18:23;;;;;;;8.77;2.25;;;;;;;;;;4987727;28;20045;-66
2022/09/18 13:20:49;;;;;;;;;;;;;;;;;;4988450;28;20070;-66
2022/09/18 13:23:17;;;;;;;7.13;1.80;;;;;;;;;;4981257;28;20047;-67
2022/09/18 13:25:46;;;;;;;11.30;2.45;;;;;;;;;;4981488;28;20085;-69
2022/09/18 13:28:13;;;;;;;10.43;2.15;;;;;;;;;;4979940;28;20121;-68
2022/09/18 13:30:39;;;;;;;11.88;2.40;;;;;;;;;;4984513;28;20153;-67
2022/09/18 13:33:20;;;;;;;8.23;2.35;;;;;;;;;;4981996;28;20038;-68
2022/09/18 13:35:52;;;;;;;7.25;2.00;;;;;;;;;;4996213;28;20522;-69
2022/09/18 13:38:21;;;;;;;11.10;2.60;;;;;;;;;;5003735;28;20067;-67
2022/09/18 13:41:07;;;;;;;9.70;2.22;;;;;;;;;;5004510;28;20492;-67
2022/09/18 13:43:36;;;;;;;8.70;2.20;;;;;;;;;;5018358;28;20074;-65
2022/09/18 13:46:03;;;;;;;9.15;2.05;;;;;;;;;;5022429;28;20013;-66
2022/09/18 13:48:42;;;;;;;11.02;2.45;;;;;;;;;;5026323;28;20072;-65
2022/09/18 13:51:10;;;;;;;10.25;2.28;;;;;;;;;;5021762;28;20299;-66
2022/09/18 13:53:40;;;;;;;7.88;2.05;;;;;;;;;;5022045;28;20029;-65
2022/09/18 13:56:08;;;;;;;9.13;2.25;;;;;;;;;;5022706;28;20566;-69
2022/09/18 13:58:36;;;;;;;8.95;1.88;;;;;;;;;;5028928;28;20024;-67
2022/09/18 14:01:06;;;;;;;9.38;1.80;;;;;;;;;;5022583;28;20030;-68
2022/09/18 14:03:34;;;;;;;8.98;2.00;;;;;;;;;;5024594;28;20068;-66
2022/09/18 14:06:20;;;;;;;9.23;2.05;;;;;;;;;;5022055;28;20029;-68
2022/09/18 14:08:46;;;;;;;9.23;1.90;;;;;;;;;;5020868;28;20025;-65
2022/09/18 14:11:13;;;;;;;8.30;2.10;;;;;;;;;;5021601;28;20029;-66
2022/09/18 14:13:39;;;;;;;8.82;2.35;;;;;;;;;;5027570;28;20179;-65
2022/09/18 14:16:05;;;;;;;11.95;2.67;;;;;;;;;;5021919;28;20140;-66
2022/09/18 14:18:34;;;;;;;12.32;2.45;;;;;;;;;;5027717;28;20032;-66
2022/09/18 14:21:13;;;;;;;8.65;2.40;;;;;;;;;;5025350;28;20056;-65
2022/09/18 14:23:39;;;;;;;9.57;2.13;;;;;;;;;;5025512;28;20028;-65
2022/09/18 14:26:32;;;;;;;7.43;1.98;;;;;;;;;;5025026;28;20429;-69
2022/09/18 14:29:13;;;;;;;12.68;2.60;;;;;;;;;;5026462;28;20120;-64
2022/09/18 14:31:48;;;;;;;9.60;2.35;;;;;;;;;;5027673;28;20097;-65
2022/09/18 14:34:14;;;;;;;;;;;;;;;;;;5024783;28;20369;-68
2022/09/18 14:37:07;;;;;;;10.80;2.40;;;;;;;;;;5024427;28;20481;-67
2022/09/18 14:39:37;;;;;;;9.68;2.30;;;;;;;;;;4986911;28;20495;-67
2022/09/18 14:42:14;;;;;;;10.75;2.20;;;;;;;;;;5024089;28;20379;-71
2022/09/18 14:44:47;;;;;;;9.63;2.38;;;;;;;;;;5026178;28;20040;-69
2022/09/18 14:47:19;;;;;;;8.98;2.42;;;;;;;;;;5012818;28;20033;-68
2022/09/18 14:49:47;;;;;;;9.25;2.28;;;;;;;;;;5023140;28;20029;-69
2022/09/18 14:52:36;;;;;;;9.55;2.30;;;;;;;;;;5022013;28;20131;-68
2022/09/18 14:55:09;;;;;;;8.93;2.33;;;;;;;;;;5022205;28;20044;-67
2022/09/18 14:57:39;;;;;;;8.00;2.28;;;;;;;;;;5005754;28;20792;-70
2022/09/18 15:00:07;;;;;;;9.35;2.22;;;;;;;;;;5022975;28;20041;-70
2022/09/18 15:02:34;;;;;;;9.13;1.90;;;;;;;;;;5024476;28;20033;-67
2022/09/18 15:05:02;;;;;;;9.73;2.10;;;;;;;;;;5022133;28;20056;-68
2022/09/18 15:07:28;;;;;;;9.20;2.20;;;;;;;;;;5026357;28;20422;-69
2022/09/18 15:09:56;;;;;;;9.10;2.30;;;;;;;;;;5022785;28;20498;-67